Time;durP1;ratioP1;P1;durP2;ratioP2;P2;SDS_P1;SDS_P2;PMS_P1;PMS_P2;Temp;Humidity;BMP_temperature;BMP_pressure;BME280_temperature;BME280_humidity;BME280_pressure;Samples;Min_cycle;Max_cycle;Signal;HPM_P1;HPM_P2
2023/02/10 00:00:14;;;;;;;24.40;8.68;;;;;;;0.96;100.00;103216.22;5049695;28;20029;-73
2023/02/10 00:02:40;;;;;;;18.08;8.23;;;;;;;0.94;100.00;103216.06;5047340;28;20022;-73
2023/02/10 00:05:05;;;;;;;17.20;8.13;;;;;;;0.89;100.00;103217.31;5049550;28;20043;-72
2023/02/10 00:07:31;;;;;;;13.82;6.90;;;;;;;0.88;100.00;103215.47;5048072;28;20030;-74
2023/02/10 00:09:56;;;;;;;19.33;6.90;;;;;;;0.88;100.00;103210.28;5042805;28;20077;-75
2023/02/10 00:12:21;;;;;;;20.40;7.70;;;;;;;0.87;100.00;103212.75;5047244;28;20064;-73
2023/02/10 00:14:47;;;;;;;15.15;6.38;;;;;;;0.89;100.00;103209.53;5052144;28;20025;-74
2023/02/10 00:17:13;;;;;;;20.15;6.30;;;;;;;0.92;100.00;103204.63;5050464;28;20044;-74
2023/02/10 00:19:38;;;;;;;15.75;5.80;;;;;;;0.94;100.00;103213.47;5049283;28;20030;-74
2023/02/10 00:22:03;;;;;;;15.82;6.80;;;;;;;1.00;100.00;103206.28;5052196;28;20025;-73
2023/02/10 00:24:29;;;;;;;12.38;5.75;;;;;;;1.11;100.00;103203.78;5040031;28;20438;-74
2023/02/10 00:26:54;;;;;;;13.23;6.40;;;;;;;1.15;100.00;103204.22;5048304;28;20032;-73
2023/02/10 00:29:19;;;;;;;12.25;6.03;;;;;;;1.22;100.00;103192.72;5044622;28;20425;-74
2023/02/10 00:31:45;;;;;;;22.27;6.97;;;;;;;1.24;100.00;103186.00;5039365;28;20524;-73
2023/02/10 00:34:13;;;;;;;21.38;6.55;;;;;;;1.26;100.00;103186.13;5045856;28;20112;-74
2023/02/10 00:36:39;;;;;;;18.02;6.65;;;;;;;1.27;100.00;103185.38;5041260;28;20503;-74
2023/02/10 00:39:04;;;;;;;17.13;7.45;;;;;;;1.25;100.00;103187.81;5049758;28;20052;-75
2023/02/10 00:41:30;;;;;;;15.02;7.18;;;;;;;1.25;100.00;103192.06;5051414;28;20035;-75
2023/02/10 00:43:55;;;;;;;18.50;7.03;;;;;;;1.18;100.00;103191.53;5051130;28;20053;-74
2023/02/10 00:46:21;;;;;;;18.08;8.02;;;;;;;1.15;100.00;103195.50;5047974;28;20028;-74
2023/02/10 00:48:47;;;;;;;17.13;7.32;;;;;;;1.09;100.00;103203.63;5040360;28;20091;-73
2023/02/10 00:51:14;;;;;;;16.75;8.10;;;;;;;1.05;100.00;103200.63;5039313;28;20029;-74
2023/02/10 00:53:39;;;;;;;20.20;8.32;;;;;;;1.06;100.00;103202.41;5049368;28;20032;-74
2023/02/10 00:56:05;;;;;;;25.77;8.98;;;;;;;1.08;100.00;103204.41;5048474;28;20032;-74
2023/02/10 00:58:31;;;;;;;26.73;8.63;;;;;;;1.13;100.00;103202.25;5051145;28;20381;-74
2023/02/10 01:00:56;;;;;;;23.40;9.35;;;;;;;1.14;100.00;103209.22;5047854;28;20040;-74
2023/02/10 01:03:22;;;;;;;17.70;8.23;;;;;;;1.09;100.00;103207.91;5050608;28;20608;-74
2023/02/10 01:05:48;;;;;;;18.10;8.07;;;;;;;1.07;100.00;103206.84;5052170;28;20029;-74
2023/02/10 01:08:14;;;;;;;23.20;8.63;;;;;;;1.09;100.00;103210.50;5050501;28;20508;-74
2023/02/10 01:10:39;;;;;;;16.60;8.70;;;;;;;1.11;100.00;103203.78;5047545;28;20036;-74
2023/02/10 01:13:07;;;;;;;23.42;9.30;;;;;;;1.14;100.00;103204.03;5049744;28;20029;-74
2023/02/10 01:15:32;;;;;;;20.17;9.80;;;;;;;1.13;100.00;103200.56;5051356;28;20025;-75
2023/02/10 01:17:58;;;;;;;25.52;10.02;;;;;;;1.16;100.00;103207.72;5057931;28;20499;-74
2023/02/10 01:20:25;;;;;;;21.17;10.18;;;;;;;1.13;100.00;103208.34;5048706;28;20039;-74
2023/02/10 01:22:51;;;;;;;19.25;9.20;;;;;;;1.11;100.00;103211.56;5050201;28;20060;-74
2023/02/10 01:25:16;;;;;;;30.33;10.45;;;;;;;1.15;100.00;103216.25;5050580;28;20050;-74
2023/02/10 01:27:41;;;;;;;23.42;10.15;;;;;;;1.17;100.00;103219.91;5050019;28;20025;-74
2023/02/10 01:30:07;;;;;;;29.98;10.02;;;;;;;1.18;100.00;103216.53;5047626;28;20039;-73
2023/02/10 01:32:33;;;;;;;23.38;10.50;;;;;;;1.16;100.00;103210.31;5041959;28;20031;-74
2023/02/10 01:34:58;;;;;;;27.70;12.10;;;;;;;1.18;100.00;103216.53;5047884;28;20112;-75
2023/02/10 01:37:23;;;;;;;29.75;12.48;;;;;;;1.21;100.00;103222.03;5048625;28;20059;-74
2023/02/10 01:39:49;;;;;;;27.25;12.05;;;;;;;1.24;100.00;103219.72;5049546;28;20040;-74
2023/02/10 01:42:15;;;;;;;39.08;12.85;;;;;;;1.22;100.00;103228.13;5051219;28;20029;-74
2023/02/10 01:44:40;;;;;;;32.83;13.25;;;;;;;1.18;100.00;103232.09;5048715;28;20029;-74
2023/02/10 01:47:07;;;;;;;32.08;13.02;;;;;;;1.15;100.00;103240.53;5046112;28;20036;-73
2023/02/10 01:49:40;;;;;;;31.85;13.40;;;;;;;1.15;100.00;103242.19;5048904;28;20108;-74
2023/02/10 01:52:11;;;;;;;36.88;14.38;;;;;;;1.13;100.00;103247.22;5034248;28;20124;-76
2023/02/10 01:54:41;;;;;;;30.33;13.10;;;;;;;1.10;100.00;103236.59;5047854;28;20037;-74
2023/02/10 01:57:07;;;;;;;31.05;13.00;;;;;;;1.07;100.00;103235.38;5050748;28;20427;-73
2023/02/10 01:59:36;;;;;;;28.88;13.35;;;;;;;1.05;100.00;103235.22;5048533;28;20029;-74
2023/02/10 02:02:06;;;;;;;31.33;12.95;;;;;;;0.99;100.00;103232.97;5050225;28;20068;-75
2023/02/10 02:04:38;;;;;;;28.58;12.73;;;;;;;0.91;100.00;103226.16;5043793;28;20412;-75
2023/02/10 02:07:03;;;;;;;39.20;14.98;;;;;;;0.83;100.00;103222.84;5050563;28;20098;-73
2023/02/10 02:09:28;;;;;;;41.50;15.20;;;;;;;0.76;100.00;103223.03;5049739;28;20045;-73
2023/02/10 02:12:12;;;;;;;33.72;14.27;;;;;;;0.81;100.00;103215.69;5051681;28;20043;-74
2023/02/10 02:15:03;;;;;;;35.92;14.68;;;;;;;0.80;100.00;103209.59;5047717;28;20064;-75
2023/02/10 02:17:33;;;;;;;38.70;13.73;;;;;;;0.75;100.00;103209.94;5048583;28;20472;-75
2023/02/10 02:23:20;;;;;;;32.70;13.68;;;;;;;0.77;100.00;103221.34;5032647;28;21605;-74
2023/02/10 02:26:10;;;;;;;41.00;15.55;;;;;;;0.71;100.00;103213.00;5046312;28;20530;-75
2023/02/10 02:28:54;;;;;;;41.72;15.75;;;;;;;0.67;100.00;103219.56;5049586;28;20033;-74
2023/02/10 02:31:46;;;;;;;37.20;15.45;;;;;;;0.63;100.00;103213.16;5049756;28;20478;-74
2023/02/10 02:34:50;;;;;;;27.30;12.88;;;;;;;0.60;100.00;103223.25;5036766;28;20025;-74
2023/02/10 02:37:21;;;;;;;40.85;14.60;;;;;;;0.58;100.00;103232.53;5058852;28;20084;-75
2023/02/10 02:39:52;;;;;;;45.38;15.52;;;;;;;0.59;100.00;103238.66;5048853;28;20362;-74
2023/02/10 02:42:22;;;;;;;42.80;15.63;;;;;;;0.62;100.00;103245.00;5051569;28;20029;-73
2023/02/10 02:44:55;;;;;;;38.38;14.65;;;;;;;0.59;100.00;103249.91;5048840;28;20024;-74
2023/02/10 02:47:39;;;;;;;32.97;13.85;;;;;;;0.57;100.00;103248.88;5047753;28;20474;-75
2023/02/10 02:50:07;;;;;;;;;;;;;;;0.69;100.00;103250.81;5049225;28;20029;-74
2023/02/10 02:52:52;;;;;;;34.75;13.95;;;;;;;0.72;100.00;103245.91;5041986;28;20368;-73
2023/02/10 02:55:39;;;;;;;39.78;15.77;;;;;;;0.74;100.00;103250.47;5045134;28;20028;-74
2023/02/10 02:58:15;;;;;;;37.88;13.57;;;;;;;0.69;100.00;103243.94;5053369;28;20025;-74
2023/02/10 03:00:43;;;;;;;39.03;15.18;;;;;;;0.78;100.00;103250.00;5047172;28;20039;-74
2023/02/10 03:03:09;;;;;;;43.95;14.80;;;;;;;0.86;100.00;103248.13;5053001;28;20044;-73
2023/02/10 03:05:35;;;;;;;51.50;16.42;;;;;;;0.83;100.00;103247.84;5054694;28;20024;-73
2023/02/10 03:08:00;;;;;;;41.10;15.38;;;;;;;0.80;100.00;103252.72;5042977;28;20033;-74
2023/02/10 03:10:25;;;;;;;42.95;16.98;;;;;;;0.79;100.00;103259.59;5053172;28;20021;-74
2023/02/10 03:12:51;;;;;;;31.45;13.32;;;;;;;0.80;100.00;103257.91;5052052;28;20041;-75
2023/02/10 03:15:16;;;;;;;58.28;15.57;;;;;;;0.86;100.00;103249.81;5053850;28;20457;-75
2023/02/10 03:17:42;;;;;;;44.42;15.23;;;;;;;0.89;100.00;103250.09;5051409;28;20021;-75
2023/02/10 03:20:09;;;;;;;43.97;16.13;;;;;;;0.93;100.00;103258.31;5053496;28;20033;-74
2023/02/10 03:22:34;;;;;;;37.30;14.55;;;;;;;0.93;100.00;103255.72;5051766;28;20036;-74
2023/02/10 03:24:59;;;;;;;42.35;15.35;;;;;;;0.95;100.00;103258.44;5053217;28;20078;-75
2023/02/10 03:27:25;;;;;;;40.33;15.05;;;;;;;1.01;100.00;103252.16;5046227;28;20087;-74
2023/02/10 03:29:52;;;;;;;49.95;15.80;;;;;;;1.04;100.00;103248.06;5052012;28;20021;-74
2023/02/10 03:32:18;;;;;;;39.60;14.88;;;;;;;1.04;100.00;103248.94;5051846;28;20078;-74
2023/02/10 03:34:43;;;;;;;37.28;15.30;;;;;;;1.06;100.00;103247.44;5050746;28;20024;-74
2023/02/10 03:37:09;;;;;;;49.08;15.02;;;;;;;1.07;100.00;103248.34;5052122;28;20052;-74
2023/02/10 03:39:34;;;;;;;38.13;15.20;;;;;;;1.06;100.00;103256.88;5051980;28;20040;-74
2023/02/10 03:41:59;;;;;;;38.58;14.65;;;;;;;1.01;100.00;103252.16;5054075;28;20435;-74
2023/02/10 03:44:25;;;;;;;36.05;14.85;;;;;;;1.03;100.00;103254.91;5046898;28;20468;-74
2023/02/10 03:46:50;;;;;;;32.92;13.93;;;;;;;1.05;100.00;103250.78;5050700;28;20091;-74
2023/02/10 03:49:16;;;;;;;43.17;13.35;;;;;;;1.03;100.00;103241.94;5050993;28;20377;-74
2023/02/10 03:51:41;;;;;;;28.20;12.52;;;;;;;0.99;100.00;103235.56;5052908;28;20024;-74
2023/02/10 03:54:06;;;;;;;33.97;13.90;;;;;;;0.95;100.00;103237.72;5046488;28;20021;-75
2023/02/10 03:56:32;;;;;;;34.55;13.70;;;;;;;0.93;100.00;103240.16;5052701;28;20033;-75
2023/02/10 03:59:03;;;;;;;37.13;14.30;;;;;;;0.95;100.00;103241.25;5048157;28;20009;-74
2023/02/10 04:01:28;;;;;;;37.03;14.63;;;;;;;0.94;100.00;103252.38;5052630;28;20029;-75
2023/02/10 04:03:53;;;;;;;33.65;13.77;;;;;;;0.91;100.00;103246.91;5048599;28;20020;-76
2023/02/10 04:06:19;;;;;;;34.85;13.07;;;;;;;1.04;100.00;103240.28;5051046;28;20404;-74
2023/02/10 04:08:46;;;;;;;37.50;14.73;;;;;;;1.12;100.00;103247.09;5050086;28;20045;-73
2023/02/10 04:11:13;;;;;;;32.72;13.90;;;;;;;1.10;100.00;103254.72;5051812;28;20036;-74
2023/02/10 04:13:39;;;;;;;38.58;13.13;;;;;;;1.07;100.00;103261.28;5047756;28;20063;-75
2023/02/10 04:16:07;;;;;;;39.42;13.35;;;;;;;1.08;100.00;103261.44;5041586;28;20488;-74
2023/02/10 04:18:35;;;;;;;40.47;14.13;;;;;;;1.09;100.00;103265.88;5045439;28;20104;-75
2023/02/10 04:21:03;;;;;;;36.75;14.70;;;;;;;1.13;100.00;103264.47;5050977;28;20074;-74
2023/02/10 04:23:29;;;;;;;55.67;14.75;;;;;;;1.14;100.00;103258.50;5046605;28;20492;-74
2023/02/10 04:25:55;;;;;;;39.42;14.95;;;;;;;1.11;100.00;103258.22;5052728;28;20029;-74
2023/02/10 04:28:21;;;;;;;52.45;16.27;;;;;;;1.10;100.00;103258.97;5047865;28;20122;-73
2023/02/10 04:30:50;;;;;;;42.22;15.90;;;;;;;1.12;100.00;103262.66;5049032;28;20024;-75
2023/02/10 04:33:15;;;;;;;45.67;17.60;;;;;;;1.15;100.00;103270.72;5049124;28;20025;-74
2023/02/10 04:35:41;;;;;;;44.88;16.95;;;;;;;1.13;100.00;103267.97;5048239;28;20086;-75
2023/02/10 04:38:06;;;;;;;59.55;19.80;;;;;;;1.12;100.00;103263.56;5052533;28;20032;-74
2023/02/10 04:40:32;;;;;;;53.90;19.42;;;;;;;1.18;100.00;103255.44;5049349;28;20094;-74
2023/02/10 04:42:57;;;;;;;46.88;17.52;;;;;;;1.24;100.00;103239.56;5047050;28;20426;-75
2023/02/10 04:45:23;;;;;;;57.45;19.05;;;;;;;1.26;100.00;103244.13;5048334;28;20065;-74
2023/02/10 04:47:48;;;;;;;53.53;20.00;;;;;;;1.29;100.00;103247.00;5048548;28;20029;-74
2023/02/10 04:50:13;;;;;;;47.42;19.08;;;;;;;1.31;100.00;103254.91;5051189;28;20033;-74
2023/02/10 04:52:39;;;;;;;48.22;20.83;;;;;;;1.28;100.00;103255.53;5051569;28;20016;-74
2023/02/10 04:55:04;;;;;;;56.20;20.08;;;;;;;1.34;100.00;103263.91;5050232;28;20048;-74
2023/02/10 04:57:29;;;;;;;58.92;21.25;;;;;;;1.35;100.00;103255.31;5051653;28;20052;-74
2023/02/10 04:59:55;;;;;;;49.67;19.67;;;;;;;1.35;100.00;103257.91;5047869;28;20064;-74
2023/02/10 05:02:20;;;;;;;64.57;22.70;;;;;;;1.33;100.00;103255.97;5046115;28;20465;-74
2023/02/10 05:04:45;;;;;;;61.38;21.10;;;;;;;1.39;100.00;103258.22;5051220;28;20035;-74
2023/02/10 05:07:11;;;;;;;66.07;21.65;;;;;;;1.36;100.00;103251.06;5048931;28;20123;-74
2023/02/10 05:09:37;;;;;;;69.18;22.27;;;;;;;1.34;100.00;103250.00;5041666;28;20072;-74
2023/02/10 05:12:02;;;;;;;59.30;22.17;;;;;;;1.39;100.00;103250.44;5052210;28;20086;-74
2023/02/10 05:14:28;;;;;;;67.53;24.13;;;;;;;1.39;100.00;103243.56;5050759;28;20028;-74
2023/02/10 05:16:53;;;;;;;61.30;23.25;;;;;;;1.43;100.00;103242.16;5040809;28;20409;-74
2023/02/10 05:19:18;;;;;;;73.93;24.10;;;;;;;1.44;100.00;103237.13;5050230;28;20380;-74
2023/02/10 05:21:44;;;;;;;63.30;22.40;;;;;;;1.43;100.00;103240.47;5052140;28;20039;-74
2023/02/10 05:24:09;;;;;;;60.55;22.88;;;;;;;1.50;100.00;103242.84;5040063;28;20028;-74
2023/02/10 05:26:34;;;;;;;76.88;24.63;;;;;;;1.50;100.00;103242.84;5047613;28;20412;-75
2023/02/10 05:29:00;;;;;;;80.18;26.13;;;;;;;1.49;100.00;103253.09;5043708;28;20469;-74
2023/02/10 05:31:25;;;;;;;74.25;26.15;;;;;;;1.52;100.00;103256.00;5043154;28;20124;-74
2023/02/10 05:33:51;;;;;;;70.85;24.60;;;;;;;1.51;100.00;103246.38;5045338;28;20025;-74
2023/02/10 05:36:16;;;;;;;67.80;24.77;;;;;;;1.47;100.00;103240.00;5044502;28;20115;-75
2023/02/10 05:39:22;;;;;;;67.15;22.17;;;;;;;1.39;100.00;103245.25;5050530;28;20099;-74
2023/02/10 05:41:27;;;;;;;67.55;23.85;;;;;;;1.40;100.00;103228.91;5050746;28;20033;-74
2023/02/10 05:43:52;;;;;;;65.78;22.40;;;;;;;1.54;100.00;103212.94;5051768;28;20020;-74
2023/02/10 05:46:18;;;;;;;72.35;24.50;;;;;;;1.48;100.00;103218.47;5051979;28;20079;-76
2023/02/10 05:48:45;;;;;;;69.32;24.77;;;;;;;1.50;100.00;103221.19;5049844;28;20033;-74
2023/02/10 05:51:10;;;;;;;75.85;23.20;;;;;;;1.52;100.00;103224.88;5051637;28;20035;-75
2023/02/10 05:53:36;;;;;;;75.45;24.60;;;;;;;1.50;100.00;103226.38;5047055;28;20103;-75
2023/02/10 05:56:01;;;;;;;63.03;23.02;;;;;;;1.55;100.00;103225.13;5048360;28;20071;-73
2023/02/10 05:58:27;;;;;;;53.92;23.00;;;;;;;1.52;100.00;103240.44;5050812;28;20021;-74
2023/02/10 06:00:53;;;;;;;62.00;22.45;;;;;;;1.60;100.00;103244.66;5048661;28;20078;-75
2023/02/10 06:03:18;;;;;;;55.67;22.08;;;;;;;1.65;100.00;103238.16;5042853;28;20473;-74
2023/02/10 06:05:45;;;;;;;67.00;23.38;;;;;;;1.62;100.00;103256.06;5048571;28;20464;-75
2023/02/10 06:08:10;;;;;;;55.78;23.35;;;;;;;1.58;100.00;103256.56;5048561;28;20049;-75
2023/02/10 06:10:36;;;;;;;71.20;24.58;;;;;;;1.55;100.00;103251.09;5050092;28;20040;-75
2023/02/10 06:13:01;;;;;;;68.25;24.73;;;;;;;1.59;100.00;103247.09;5051191;28;20029;-75
2023/02/10 06:15:26;;;;;;;69.30;26.38;;;;;;;1.51;100.00;103249.88;5049065;28;20024;-75
2023/02/10 06:17:52;;;;;;;67.90;24.40;;;;;;;1.50;100.00;103249.75;5051283;28;20025;-76
2023/02/10 06:20:17;;;;;;;69.57;24.15;;;;;;;1.50;100.00;103248.03;5049333;28;20033;-74
2023/02/10 06:22:42;;;;;;;69.05;25.80;;;;;;;1.50;100.00;103249.75;5048540;28;20025;-75
2023/02/10 06:25:08;;;;;;;57.55;23.13;;;;;;;1.50;100.00;103267.91;5050913;28;20032;-74
2023/02/10 06:27:33;;;;;;;61.25;23.58;;;;;;;1.46;100.00;103269.28;5062407;28;20044;-75
2023/02/10 06:29:58;;;;;;;65.35;25.33;;;;;;;1.53;100.00;103278.56;5051935;28;20419;-74
2023/02/10 06:32:24;;;;;;;67.97;23.95;;;;;;;1.49;100.00;103289.44;5067193;28;20032;-75
2023/02/10 06:34:49;;;;;;;51.00;20.77;;;;;;;1.49;100.00;103286.81;5066957;28;20021;-73
2023/02/10 06:37:14;;;;;;;63.67;23.02;;;;;;;1.49;100.00;103292.03;5055247;28;20021;-74
2023/02/10 06:39:40;;;;;;;62.65;22.92;;;;;;;1.43;100.00;103291.47;5053946;28;20021;-76
2023/02/10 06:42:06;;;;;;;53.00;22.52;;;;;;;1.33;100.00;103292.28;5052858;28;20147;-76
2023/02/10 06:44:31;;;;;;;55.42;23.55;;;;;;;1.35;100.00;103289.03;5053178;28;20116;-75
2023/02/10 06:46:56;;;;;;;54.00;24.13;;;;;;;1.34;100.00;103286.31;5047640;28;20029;-74
2023/02/10 06:49:22;;;;;;;62.72;23.13;;;;;;;1.32;100.00;103275.81;5047831;28;20044;-75
2023/02/10 06:51:47;;;;;;;61.35;20.45;;;;;;;1.41;100.00;103273.16;5051402;28;20029;-76
2023/02/10 06:54:12;;;;;;;48.35;21.73;;;;;;;1.38;100.00;103266.78;5052655;28;20025;-74
2023/02/10 06:56:39;;;;;;;47.03;19.20;;;;;;;1.40;100.00;103270.41;5051299;28;20396;-75
2023/02/10 06:59:05;;;;;;;44.53;19.70;;;;;;;1.40;100.00;103268.75;5044446;28;20063;-76
2023/02/10 07:01:30;;;;;;;49.45;22.23;;;;;;;1.48;100.00;103265.16;5061117;28;20462;-74
2023/02/10 07:03:56;;;;;;;45.42;19.88;;;;;;;1.52;100.00;103250.81;5051997;28;20068;-75
2023/02/10 07:06:21;;;;;;;51.17;19.50;;;;;;;1.49;100.00;103250.50;5049055;28;20123;-75
2023/02/10 07:08:46;;;;;;;53.35;22.13;;;;;;;1.56;100.00;103255.50;5050830;28;20396;-76
2023/02/10 07:11:12;;;;;;;47.05;21.00;;;;;;;1.51;100.00;103273.22;5047780;28;20078;-74
2023/02/10 07:13:37;;;;;;;43.60;19.38;;;;;;;1.51;100.00;103280.13;5052860;28;20027;-75
2023/02/10 07:16:03;;;;;;;48.30;20.75;;;;;;;1.52;100.00;103281.94;5063686;28;20032;-74
2023/02/10 07:18:29;;;;;;;48.40;21.55;;;;;;;1.50;100.00;103279.19;5060198;28;20017;-74
2023/02/10 07:20:55;;;;;;;42.63;19.90;;;;;;;1.47;100.00;103278.00;5052412;28;20529;-76
2023/02/10 07:23:20;;;;;;;39.20;18.67;;;;;;;1.48;100.00;103295.41;5057308;28;20112;-75
2023/02/10 07:25:45;;;;;;;49.78;20.30;;;;;;;1.51;100.00;103295.69;5053298;28;20025;-75
2023/02/10 07:28:11;;;;;;;43.33;21.13;;;;;;;1.46;100.00;103312.50;5052823;28;20182;-76
2023/02/10 07:30:37;;;;;;;42.45;18.63;;;;;;;1.42;100.00;103310.38;5052439;28;20466;-76
2023/02/10 07:33:03;;;;;;;50.17;19.40;;;;;;;1.46;100.00;103322.88;5053043;28;20116;-75
2023/02/10 07:35:28;;;;;;;40.30;21.33;;;;;;;1.47;100.00;103314.34;5044845;28;20029;-75
2023/02/10 07:37:53;;;;;;;48.25;20.27;;;;;;;1.50;100.00;103299.03;5049737;28;20115;-76
2023/02/10 07:40:19;;;;;;;40.05;19.05;;;;;;;1.46;100.00;103290.06;5042632;28;20067;-72
2023/02/10 07:42:44;;;;;;;38.78;19.55;;;;;;;1.55;100.00;103295.19;5048630;28;20067;-76
2023/02/10 07:45:10;;;;;;;41.90;19.67;;;;;;;1.36;100.00;103305.53;5050700;28;20024;-75
2023/02/10 07:47:35;;;;;;;39.35;19.40;;;;;;;1.34;100.00;103297.63;5055532;28;20429;-76
2023/02/10 07:50:01;;;;;;;43.78;21.42;;;;;;;1.38;100.00;103303.09;5050841;28;20090;-75
2023/02/10 07:52:27;;;;;;;39.80;19.30;;;;;;;1.49;100.00;103312.78;5053248;28;20056;-75
2023/02/10 07:54:52;;;;;;;40.50;19.70;;;;;;;1.47;100.00;103311.75;5055275;28;20044;-75
2023/02/10 07:57:18;;;;;;;43.38;22.13;;;;;;;1.50;100.00;103323.28;5064737;28;20078;-75
2023/02/10 07:59:43;;;;;;;40.22;21.60;;;;;;;1.40;100.00;103323.22;5068079;28;20047;-77
2023/02/10 08:02:10;;;;;;;38.13;19.30;;;;;;;1.38;100.00;103323.84;5062797;28;20185;-74
2023/02/10 08:04:36;;;;;;;36.42;21.20;;;;;;;1.39;100.00;103323.97;5056772;28;20028;-74
2023/02/10 08:07:01;;;;;;;37.72;20.52;;;;;;;1.47;100.00;103324.72;5056993;28;20028;-74
2023/02/10 08:09:26;;;;;;;44.03;21.80;;;;;;;1.43;100.00;103339.06;5069464;28;20503;-76
2023/02/10 08:11:52;;;;;;;40.28;20.80;;;;;;;1.38;100.00;103326.44;5068588;28;20460;-76
2023/02/10 08:14:17;;;;;;;50.20;21.65;;;;;;;1.44;100.00;103327.00;5064435;28;20476;-74
2023/02/10 08:16:42;;;;;;;39.13;21.63;;;;;;;1.44;100.00;103332.19;5056825;28;20362;-74
2023/02/10 08:19:08;;;;;;;44.63;21.15;;;;;;;1.43;100.00;103328.69;5065567;28;20028;-75
2023/02/10 08:21:33;;;;;;;40.03;20.50;;;;;;;1.43;100.00;103325.19;5056314;28;20048;-75
2023/02/10 08:23:58;;;;;;;39.97;19.92;;;;;;;1.34;100.00;103328.75;5075292;28;20025;-75
2023/02/10 08:26:24;;;;;;;37.03;19.13;;;;;;;1.43;100.00;103320.00;5072276;28;20024;-75
2023/02/10 08:28:50;;;;;;;37.22;20.83;;;;;;;1.46;100.00;103318.59;5053647;28;20023;-75
2023/02/10 08:31:15;;;;;;;41.42;20.73;;;;;;;1.49;100.00;103328.34;5053368;28;20053;-75
2023/02/10 08:33:42;;;;;;;36.92;19.67;;;;;;;1.58;100.00;103336.09;5055607;28;20048;-74
2023/02/10 08:36:09;;;;;;;44.80;20.23;;;;;;;1.66;100.00;103333.44;5051314;28;20426;-75
2023/02/10 08:38:35;;;;;;;37.70;19.75;;;;;;;1.75;100.00;103337.66;5053192;28;20025;-75
2023/02/10 08:41:00;;;;;;;41.38;18.60;;;;;;;1.68;100.00;103326.72;5061493;28;20385;-74
2023/02/10 08:43:26;;;;;;;40.90;20.90;;;;;;;1.69;100.00;103325.03;5054289;28;20476;-73
2023/02/10 08:45:55;;;;;;;40.65;20.08;;;;;;;1.74;100.00;103320.28;5058718;28;20066;-74
2023/02/10 08:48:21;;;;;;;34.85;18.60;;;;;;;1.81;100.00;103312.28;5058299;28;20028;-74
2023/02/10 08:50:46;;;;;;;42.55;21.08;;;;;;;1.92;100.00;103331.44;5055625;28;20028;-74
2023/02/10 08:53:11;;;;;;;31.80;19.40;;;;;;;1.98;100.00;103337.16;5055549;28;20027;-74
2023/02/10 08:55:37;;;;;;;41.53;18.90;;;;;;;2.06;100.00;103338.78;5053526;28;20050;-74
2023/02/10 08:58:03;;;;;;;35.97;18.83;;;;;;;2.01;100.00;103328.00;5056006;28;20033;-75
2023/02/10 09:00:29;;;;;;;35.17;19.48;;;;;;;2.13;100.00;103322.06;5057762;28;20028;-75
2023/02/10 09:02:54;;;;;;;34.72;17.63;;;;;;;2.14;100.00;103336.91;5059734;28;20116;-74
2023/02/10 09:05:19;;;;;;;37.60;19.65;;;;;;;2.26;100.00;103334.50;5066850;28;20050;-75
2023/02/10 09:07:45;;;;;;;35.95;18.45;;;;;;;2.32;100.00;103341.19;5065128;28;20539;-74
2023/02/10 09:10:11;;;;;;;37.33;18.45;;;;;;;2.43;100.00;103343.81;5058465;28;20396;-73
2023/02/10 09:12:38;;;;;;;32.00;17.10;;;;;;;2.50;100.00;103336.72;5050335;28;20382;-74
2023/02/10 09:15:04;;;;;;;36.22;18.02;;;;;;;2.55;100.00;103344.00;5046929;28;21153;-74
2023/02/10 09:17:30;;;;;;;40.53;18.13;;;;;;;2.69;100.00;103341.88;5048917;28;20025;-73
2023/02/10 09:19:55;;;;;;;39.83;17.48;;;;;;;2.83;100.00;103342.19;5054237;28;20036;-75
2023/02/10 09:22:20;;;;;;;33.58;17.70;;;;;;;3.17;100.00;103356.47;5047720;28;20025;-74
2023/02/10 09:24:47;;;;;;;27.73;15.35;;;;;;;3.52;100.00;103353.41;5057114;28;20040;-73
2023/02/10 09:27:15;;;;;;;34.10;15.82;;;;;;;3.61;100.00;103355.88;5048678;28;20032;-74
2023/02/10 09:29:40;;;;;;;27.42;15.57;;;;;;;3.76;100.00;103350.16;5052238;28;20044;-74
2023/02/10 09:32:05;;;;;;;28.27;14.60;;;;;;;3.91;100.00;103343.66;5052405;28;20036;-75
2023/02/10 09:34:31;;;;;;;29.52;15.07;;;;;;;3.91;100.00;103351.47;5060104;28;20017;-73
2023/02/10 09:37:00;;;;;;;30.85;15.07;;;;;;;4.25;100.00;103346.47;5059203;28;20036;-74
2023/02/10 09:39:26;;;;;;;27.77;14.80;;;;;;;4.34;100.00;103349.84;5053682;28;20039;-74
2023/02/10 09:42:01;;;;;;;25.42;14.25;;;;;;;4.57;100.00;103340.34;5058008;28;20504;-74
2023/02/10 09:44:30;;;;;;;25.05;13.75;;;;;;;4.82;100.00;103355.41;5049540;28;20029;-74
2023/02/10 09:47:08;;;;;;;29.25;13.05;;;;;;;4.81;100.00;103348.38;5051835;28;20029;-74
2023/02/10 09:49:58;;;;;;;23.85;13.43;;;;;;;5.03;100.00;103341.47;5056300;28;20029;-74
2023/02/10 09:52:38;;;;;;;22.25;12.32;;;;;;;5.40;100.00;103346.97;5063750;28;20376;-75
2023/02/10 09:55:14;;;;;;;22.67;13.70;;;;;;;5.30;100.00;103347.03;5061962;28;20029;-77
2023/02/10 09:57:44;;;;;;;23.08;12.75;;;;;;;5.45;100.00;103346.41;5039759;28;20376;-74
2023/02/10 10:00:26;;;;;;;26.52;12.52;;;;;;;5.65;100.00;103353.19;5053296;28;20187;-74
2023/02/10 10:02:54;;;;;;;25.17;12.98;;;;;;;5.60;100.00;103350.22;5047207;28;20036;-74
2023/02/10 10:05:30;;;;;;;21.70;11.85;;;;;;;5.69;100.00;103347.41;5057643;28;20099;-74
2023/02/10 10:07:57;;;;;;;19.70;11.35;;;;;;;5.30;100.00;103344.41;5065987;28;20024;-75
2023/02/10 10:10:29;;;;;;;21.80;11.93;;;;;;;5.42;100.00;103357.53;5066358;28;20048;-73
2023/02/10 10:12:54;;;;;;;21.73;12.38;;;;;;;5.51;100.00;103357.34;5055547;28;20044;-73
2023/02/10 10:15:21;;;;;;;24.25;12.55;;;;;;;5.62;100.00;103359.09;5057929;28;20074;-73
2023/02/10 10:18:16;;;;;;;29.42;12.45;;;;;;;5.79;100.00;103355.16;5059982;28;20063;-73
2023/02/10 10:20:48;;;;;;;21.35;10.60;;;;;;;5.94;100.00;103360.66;5049247;28;20017;-74
2023/02/10 10:23:54;;;;;;;27.70;13.00;;;;;;;6.05;100.00;103354.56;5057284;28;20043;-74
2023/02/10 10:26:41;;;;;;;23.05;10.57;;;;;;;5.83;100.00;103340.63;5045866;28;20194;-73
2023/02/10 10:29:36;;;;;;;17.38;10.05;;;;;;;6.25;100.00;103336.84;5059750;28;20057;-74
2023/02/10 10:32:24;;;;;;;23.67;11.00;;;;;;;6.28;100.00;103333.56;5053257;28;20029;-73
2023/02/10 10:34:52;;;;;;;20.92;11.68;;;;;;;6.37;100.00;103342.09;5051950;28;20029;-74
2023/02/10 10:37:20;;;;;;;21.45;11.40;;;;;;;6.79;100.00;103332.03;5063299;28;20120;-74
2023/02/10 10:39:51;;;;;;;19.30;11.30;;;;;;;6.88;100.00;103336.22;5062073;28;20426;-75
2023/02/10 10:42:23;;;;;;;22.52;10.98;;;;;;;6.98;100.00;103321.19;5057659;28;20051;-74
2023/02/10 10:44:50;;;;;;;25.00;10.60;;;;;;;7.02;100.00;103334.59;5055177;28;20031;-73
2023/02/10 10:47:25;;;;;;;19.42;10.35;;;;;;;7.12;100.00;103330.00;5057216;28;20040;-74
2023/02/10 10:49:51;;;;;;;21.65;10.70;;;;;;;7.40;100.00;103330.25;5058676;28;20450;-74
2023/02/10 10:52:31;;;;;;;23.38;11.23;;;;;;;7.68;100.00;103327.81;5051228;28;20060;-74
2023/02/10 10:54:57;;;;;;;22.45;10.10;;;;;;;7.95;100.00;103335.75;5059371;28;20112;-74
2023/02/10 10:57:25;;;;;;;20.08;10.07;;;;;;;7.93;100.00;103332.09;5062526;28;20451;-73
2023/02/10 11:00:15;;;;;;;19.58;10.20;;;;;;;8.34;100.00;103328.75;5050247;28;20025;-73
2023/02/10 11:02:55;;;;;;;17.42;9.75;;;;;;;8.50;99.50;103327.13;5057520;28;20024;-74
2023/02/10 11:05:22;;;;;;;16.27;10.43;;;;;;;8.76;97.50;103327.13;5071017;28;20062;-74
2023/02/10 11:07:50;;;;;;;22.42;10.30;;;;;;;9.05;94.96;103328.03;5072779;28;20080;-74
2023/02/10 11:10:48;;;;;;;17.73;9.80;;;;;;;9.01;93.93;103328.66;5065547;28;20025;-73
2023/02/10 11:13:23;;;;;;;18.00;10.27;;;;;;;9.15;93.75;103334.78;5055104;28;20033;-74
2023/02/10 11:15:59;;;;;;;20.40;10.30;;;;;;;9.87;89.94;103334.75;5055432;28;20457;-73
2023/02/10 11:18:24;;;;;;;17.15;9.93;;;;;;;10.05;84.05;103330.59;5053860;28;20123;-74